sensor_id;sensor_type;location;lat;lon;timestamp;P1;durP1;ratioP1;P2;durP2;ratioP2
12593;SDS011;6362;50.208;9.182;2022-11-15T00:01:49;4.28;;;1.98;;
12593;SDS011;6362;50.208;9.182;2022-11-15T00:04:15;5.88;;;2.30;;
12593;SDS011;6362;50.208;9.182;2022-11-15T00:06:41;6.30;;;2.10;;
12593;SDS011;6362;50.208;9.182;2022-11-15T00:09:06;7.78;;;2.28;;
12593;SDS011;6362;50.208;9.182;2022-11-15T00:11:31;6.82;;;2.40;;
12593;SDS011;6362;50.208;9.182;2022-11-15T00:13:57;5.30;;;2.20;;
12593;SDS011;6362;50.208;9.182;2022-11-15T00:16:23;6.07;;;2.50;;
12593;SDS011;6362;50.208;9.182;2022-11-15T00:18:49;8.55;;;2.92;;
12593;SDS011;6362;50.208;9.182;2022-11-15T00:21:15;6.10;;;2.50;;
12593;SDS011;6362;50.208;9.182;2022-11-15T00:23:41;7.80;;;2.58;;
12593;SDS011;6362;50.208;9.182;2022-11-15T00:26:07;6.35;;;2.70;;
12593;SDS011;6362;50.208;9.182;2022-11-15T00:28:37;4.05;;;2.28;;
12593;SDS011;6362;50.208;9.182;2022-11-15T00:31:04;5.47;;;2.50;;
12593;SDS011;6362;50.208;9.182;2022-11-15T00:33:31;7.25;;;2.83;;
12593;SDS011;6362;50.208;9.182;2022-11-15T00:36:04;4.60;;;2.15;;
12593;SDS011;6362;50.208;9.182;2022-11-15T00:38:37;4.63;;;2.17;;
12593;SDS011;6362;50.208;9.182;2022-11-15T00:41:04;3.95;;;1.98;;
12593;SDS011;6362;50.208;9.182;2022-11-15T00:43:31;5.55;;;2.40;;
12593;SDS011;6362;50.208;9.182;2022-11-15T00:45:57;4.97;;;2.45;;
12593;SDS011;6362;50.208;9.182;2022-11-15T00:48:22;5.85;;;2.42;;
12593;SDS011;6362;50.208;9.182;2022-11-15T00:50:48;5.38;;;2.33;;
12593;SDS011;6362;50.208;9.182;2022-11-15T00:53:14;4.00;;;2.17;;
12593;SDS011;6362;50.208;9.182;2022-11-15T00:55:40;5.65;;;2.10;;
12593;SDS011;6362;50.208;9.182;2022-11-15T00:58:06;5.32;;;2.15;;
12593;SDS011;6362;50.208;9.182;2022-11-15T01:00:31;6.25;;;2.53;;
12593;SDS011;6362;50.208;9.182;2022-11-15T01:02:56;4.78;;;2.20;;
12593;SDS011;6362;50.208;9.182;2022-11-15T01:05:22;5.82;;;2.55;;
12593;SDS011;6362;50.208;9.182;2022-11-15T01:07:51;5.53;;;2.17;;
12593;SDS011;6362;50.208;9.182;2022-11-15T01:10:17;4.82;;;2.20;;
12593;SDS011;6362;50.208;9.182;2022-11-15T01:12:43;8.13;;;2.60;;
12593;SDS011;6362;50.208;9.182;2022-11-15T01:15:08;5.47;;;2.20;;
12593;SDS011;6362;50.208;9.182;2022-11-15T01:17:34;4.63;;;2.45;;
12593;SDS011;6362;50.208;9.182;2022-11-15T01:19:59;5.00;;;2.45;;
12593;SDS011;6362;50.208;9.182;2022-11-15T01:22:25;4.85;;;2.05;;
12593;SDS011;6362;50.208;9.182;2022-11-15T01:24:50;6.13;;;2.58;;
12593;SDS011;6362;50.208;9.182;2022-11-15T01:27:16;5.65;;;2.42;;
12593;SDS011;6362;50.208;9.182;2022-11-15T01:29:41;5.07;;;2.30;;
12593;SDS011;6362;50.208;9.182;2022-11-15T01:32:07;7.80;;;3.15;;
12593;SDS011;6362;50.208;9.182;2022-11-15T01:34:32;5.70;;;2.10;;
12593;SDS011;6362;50.208;9.182;2022-11-15T01:36:58;5.93;;;2.13;;
12593;SDS011;6362;50.208;9.182;2022-11-15T01:39:23;5.90;;;2.40;;
12593;SDS011;6362;50.208;9.182;2022-11-15T01:41:49;4.78;;;2.25;;
12593;SDS011;6362;50.208;9.182;2022-11-15T01:46:59;4.72;;;2.05;;
12593;SDS011;6362;50.208;9.182;2022-11-15T01:49:28;7.40;;;2.53;;
12593;SDS011;6362;50.208;9.182;2022-11-15T01:51:57;5.22;;;2.45;;
12593;SDS011;6362;50.208;9.182;2022-11-15T01:54:24;5.82;;;2.42;;
12593;SDS011;6362;50.208;9.182;2022-11-15T01:56:52;6.40;;;2.67;;
12593;SDS011;6362;50.208;9.182;2022-11-15T01:59:22;5.78;;;2.38;;
12593;SDS011;6362;50.208;9.182;2022-11-15T02:01:48;4.72;;;2.13;;
12593;SDS011;6362;50.208;9.182;2022-11-15T02:04:17;7.32;;;2.50;;
12593;SDS011;6362;50.208;9.182;2022-11-15T02:06:48;5.28;;;2.78;;
12593;SDS011;6362;50.208;9.182;2022-11-15T02:09:14;4.75;;;2.13;;
12593;SDS011;6362;50.208;9.182;2022-11-15T02:11:40;6.30;;;2.55;;
12593;SDS011;6362;50.208;9.182;2022-11-15T02:14:07;6.45;;;2.30;;
12593;SDS011;6362;50.208;9.182;2022-11-15T02:19:27;7.15;;;2.53;;
12593;SDS011;6362;50.208;9.182;2022-11-15T02:33:13;6.03;;;2.30;;
12593;SDS011;6362;50.208;9.182;2022-11-15T02:35:44;4.20;;;2.00;;
12593;SDS011;6362;50.208;9.182;2022-11-15T02:38:27;5.53;;;2.22;;
12593;SDS011;6362;50.208;9.182;2022-11-15T02:44:36;4.82;;;2.05;;
12593;SDS011;6362;50.208;9.182;2022-11-15T02:49:47;4.72;;;2.20;;
12593;SDS011;6362;50.208;9.182;2022-11-15T02:52:15;5.47;;;2.25;;
12593;SDS011;6362;50.208;9.182;2022-11-15T02:54:42;10.52;;;2.70;;
12593;SDS011;6362;50.208;9.182;2022-11-15T02:57:12;6.97;;;2.63;;
12593;SDS011;6362;50.208;9.182;2022-11-15T02:59:56;3.92;;;1.90;;
12593;SDS011;6362;50.208;9.182;2022-11-15T03:05:21;6.22;;;2.17;;
12593;SDS011;6362;50.208;9.182;2022-11-15T03:07:51;6.00;;;2.20;;
12593;SDS011;6362;50.208;9.182;2022-11-15T03:10:26;6.93;;;2.17;;
12593;SDS011;6362;50.208;9.182;2022-11-15T03:13:13;5.32;;;2.35;;
12593;SDS011;6362;50.208;9.182;2022-11-15T03:15:43;4.43;;;2.10;;
12593;SDS011;6362;50.208;9.182;2022-11-15T03:18:29;8.32;;;2.65;;
12593;SDS011;6362;50.208;9.182;2022-11-15T03:20:57;4.35;;;2.03;;
12593;SDS011;6362;50.208;9.182;2022-11-15T03:23:24;3.63;;;1.70;;
12593;SDS011;6362;50.208;9.182;2022-11-15T03:25:51;4.78;;;2.10;;
12593;SDS011;6362;50.208;9.182;2022-11-15T03:28:21;5.03;;;1.83;;
12593;SDS011;6362;50.208;9.182;2022-11-15T03:30:53;4.40;;;2.13;;
12593;SDS011;6362;50.208;9.182;2022-11-15T03:33:20;4.85;;;2.38;;
12593;SDS011;6362;50.208;9.182;2022-11-15T03:35:47;5.00;;;2.22;;
12593;SDS011;6362;50.208;9.182;2022-11-15T03:38:19;7.50;;;2.50;;
12593;SDS011;6362;50.208;9.182;2022-11-15T03:40:51;6.90;;;2.60;;
12593;SDS011;6362;50.208;9.182;2022-11-15T03:46:07;6.65;;;2.72;;
12593;SDS011;6362;50.208;9.182;2022-11-15T03:48:37;6.00;;;2.40;;
12593;SDS011;6362;50.208;9.182;2022-11-15T03:51:07;5.40;;;2.40;;
12593;SDS011;6362;50.208;9.182;2022-11-15T03:53:34;6.38;;;2.30;;
12593;SDS011;6362;50.208;9.182;2022-11-15T03:55:59;4.63;;;2.28;;
12593;SDS011;6362;50.208;9.182;2022-11-15T03:58:25;7.35;;;2.80;;
12593;SDS011;6362;50.208;9.182;2022-11-15T04:00:50;5.97;;;2.53;;
12593;SDS011;6362;50.208;9.182;2022-11-15T04:03:16;5.00;;;2.25;;
12593;SDS011;6362;50.208;9.182;2022-11-15T04:05:41;9.45;;;3.47;;
12593;SDS011;6362;50.208;9.182;2022-11-15T04:08:06;4.80;;;2.20;;
12593;SDS011;6362;50.208;9.182;2022-11-15T04:10:32;5.63;;;1.92;;
12593;SDS011;6362;50.208;9.182;2022-11-15T04:12:57;4.72;;;2.20;;
12593;SDS011;6362;50.208;9.182;2022-11-15T04:15:23;4.45;;;2.13;;
12593;SDS011;6362;50.208;9.182;2022-11-15T04:17:50;5.70;;;2.30;;
12593;SDS011;6362;50.208;9.182;2022-11-15T04:20:23;6.13;;;2.70;;
12593;SDS011;6362;50.208;9.182;2022-11-15T04:23:19;3.85;;;2.03;;
12593;SDS011;6362;50.208;9.182;2022-11-15T04:26:09;4.60;;;2.13;;
12593;SDS011;6362;50.208;9.182;2022-11-15T04:28:37;5.70;;;2.00;;
12593;SDS011;6362;50.208;9.182;2022-11-15T04:31:23;5.13;;;2.05;;
12593;SDS011;6362;50.208;9.182;2022-11-15T04:33:49;4.55;;;2.00;;
12593;SDS011;6362;50.208;9.182;2022-11-15T04:36:14;5.38;;;2.10;;
12593;SDS011;6362;50.208;9.182;2022-11-15T04:38:58;3.50;;;2.00;;
12593;SDS011;6362;50.208;9.182;2022-11-15T04:41:23;3.95;;;2.10;;
12593;SDS011;6362;50.208;9.182;2022-11-15T04:43:49;7.07;;;2.13;;
12593;SDS011;6362;50.208;9.182;2022-11-15T04:46:14;4.78;;;2.20;;
12593;SDS011;6362;50.208;9.182;2022-11-15T04:48:40;7.03;;;2.63;;
12593;SDS011;6362;50.208;9.182;2022-11-15T04:51:05;4.72;;;2.40;;
12593;SDS011;6362;50.208;9.182;2022-11-15T04:53:30;5.22;;;2.47;;
12593;SDS011;6362;50.208;9.182;2022-11-15T04:55:56;5.00;;;2.58;;
12593;SDS011;6362;50.208;9.182;2022-11-15T04:58:21;5.15;;;2.40;;
12593;SDS011;6362;50.208;9.182;2022-11-15T05:00:47;4.00;;;2.25;;
12593;SDS011;6362;50.208;9.182;2022-11-15T05:03:12;6.75;;;2.40;;
12593;SDS011;6362;50.208;9.182;2022-11-15T05:05:56;5.80;;;3.05;;
12593;SDS011;6362;50.208;9.182;2022-11-15T05:08:22;5.13;;;2.60;;
12593;SDS011;6362;50.208;9.182;2022-11-15T05:10:48;6.82;;;2.80;;
12593;SDS011;6362;50.208;9.182;2022-11-15T05:13:13;5.68;;;3.08;;
12593;SDS011;6362;50.208;9.182;2022-11-15T05:15:38;5.85;;;2.40;;
12593;SDS011;6362;50.208;9.182;2022-11-15T05:18:04;4.53;;;2.67;;
12593;SDS011;6362;50.208;9.182;2022-11-15T05:20:29;7.10;;;2.70;;
12593;SDS011;6362;50.208;9.182;2022-11-15T05:22:55;7.95;;;3.47;;
12593;SDS011;6362;50.208;9.182;2022-11-15T05:25:21;5.72;;;3.00;;
12593;SDS011;6362;50.208;9.182;2022-11-15T05:27:47;5.72;;;2.90;;
12593;SDS011;6362;50.208;9.182;2022-11-15T05:30:13;9.15;;;5.13;;
12593;SDS011;6362;50.208;9.182;2022-11-15T05:32:38;6.65;;;4.05;;
12593;SDS011;6362;50.208;9.182;2022-11-15T05:35:04;6.65;;;2.80;;
12593;SDS011;6362;50.208;9.182;2022-11-15T05:37:34;7.40;;;2.80;;
12593;SDS011;6362;50.208;9.182;2022-11-15T05:39:59;8.38;;;3.80;;
12593;SDS011;6362;50.208;9.182;2022-11-15T05:42:25;5.82;;;2.72;;
12593;SDS011;6362;50.208;9.182;2022-11-15T05:44:51;6.75;;;2.22;;
12593;SDS011;6362;50.208;9.182;2022-11-15T05:47:19;4.95;;;2.35;;
12593;SDS011;6362;50.208;9.182;2022-11-15T05:49:49;6.97;;;2.88;;
12593;SDS011;6362;50.208;9.182;2022-11-15T05:52:17;5.90;;;2.63;;
12593;SDS011;6362;50.208;9.182;2022-11-15T05:54:47;9.30;;;2.75;;
12593;SDS011;6362;50.208;9.182;2022-11-15T05:57:13;8.57;;;3.38;;
12593;SDS011;6362;50.208;9.182;2022-11-15T05:59:39;6.93;;;2.90;;
12593;SDS011;6362;50.208;9.182;2022-11-15T06:02:06;7.22;;;2.80;;
12593;SDS011;6362;50.208;9.182;2022-11-15T06:04:31;5.07;;;2.70;;
12593;SDS011;6362;50.208;9.182;2022-11-15T06:06:57;6.63;;;2.85;;
12593;SDS011;6362;50.208;9.182;2022-11-15T06:09:23;5.07;;;2.60;;
12593;SDS011;6362;50.208;9.182;2022-11-15T06:11:49;7.80;;;3.45;;
12593;SDS011;6362;50.208;9.182;2022-11-15T06:14:14;8.10;;;2.75;;
12593;SDS011;6362;50.208;9.182;2022-11-15T06:16:40;8.43;;;2.47;;
12593;SDS011;6362;50.208;9.182;2022-11-15T06:19:06;8.07;;;2.80;;
12593;SDS011;6362;50.208;9.182;2022-11-15T06:21:32;8.80;;;3.33;;
12593;SDS011;6362;50.208;9.182;2022-11-15T06:23:58;6.43;;;2.75;;
12593;SDS011;6362;50.208;9.182;2022-11-15T06:26:23;7.78;;;3.15;;
12593;SDS011;6362;50.208;9.182;2022-11-15T06:28:49;7.75;;;3.15;;
12593;SDS011;6362;50.208;9.182;2022-11-15T06:31:14;6.53;;;2.60;;
12593;SDS011;6362;50.208;9.182;2022-11-15T06:33:40;6.75;;;2.88;;
12593;SDS011;6362;50.208;9.182;2022-11-15T06:36:07;9.57;;;3.10;;
12593;SDS011;6362;50.208;9.182;2022-11-15T06:38:34;7.28;;;3.20;;
12593;SDS011;6362;50.208;9.182;2022-11-15T06:41:01;6.40;;;2.80;;
12593;SDS011;6362;50.208;9.182;2022-11-15T06:43:31;7.00;;;3.03;;
12593;SDS011;6362;50.208;9.182;2022-11-15T06:46:00;5.35;;;2.72;;
12593;SDS011;6362;50.208;9.182;2022-11-15T06:48:27;6.80;;;2.80;;
12593;SDS011;6362;50.208;9.182;2022-11-15T06:50:55;5.13;;;2.85;;
12593;SDS011;6362;50.208;9.182;2022-11-15T06:53:22;8.02;;;3.40;;
12593;SDS011;6362;50.208;9.182;2022-11-15T06:55:48;5.70;;;2.92;;
12593;SDS011;6362;50.208;9.182;2022-11-15T06:58:14;6.93;;;3.10;;
12593;SDS011;6362;50.208;9.182;2022-11-15T07:00:39;6.63;;;2.85;;
12593;SDS011;6362;50.208;9.182;2022-11-15T07:03:05;6.10;;;2.78;;
12593;SDS011;6362;50.208;9.182;2022-11-15T07:05:31;7.10;;;3.20;;
12593;SDS011;6362;50.208;9.182;2022-11-15T07:07:57;6.93;;;3.25;;
12593;SDS011;6362;50.208;9.182;2022-11-15T07:10:23;6.07;;;2.60;;
12593;SDS011;6362;50.208;9.182;2022-11-15T07:12:50;6.90;;;2.55;;
12593;SDS011;6362;50.208;9.182;2022-11-15T07:15:17;7.50;;;2.90;;
12593;SDS011;6362;50.208;9.182;2022-11-15T07:17:44;11.32;;;3.35;;
12593;SDS011;6362;50.208;9.182;2022-11-15T07:20:10;5.00;;;2.72;;
12593;SDS011;6362;50.208;9.182;2022-11-15T07:22:36;8.27;;;3.38;;
12593;SDS011;6362;50.208;9.182;2022-11-15T07:25:02;6.03;;;2.50;;
12593;SDS011;6362;50.208;9.182;2022-11-15T07:27:28;6.18;;;2.85;;
12593;SDS011;6362;50.208;9.182;2022-11-15T07:29:53;6.32;;;2.55;;
12593;SDS011;6362;50.208;9.182;2022-11-15T07:32:19;6.55;;;2.58;;
12593;SDS011;6362;50.208;9.182;2022-11-15T07:34:44;6.60;;;2.97;;
12593;SDS011;6362;50.208;9.182;2022-11-15T07:37:11;5.00;;;2.33;;
12593;SDS011;6362;50.208;9.182;2022-11-15T07:39:37;6.22;;;2.70;;
12593;SDS011;6362;50.208;9.182;2022-11-15T07:42:02;7.93;;;2.63;;
12593;SDS011;6362;50.208;9.182;2022-11-15T07:44:46;5.95;;;2.90;;
12593;SDS011;6362;50.208;9.182;2022-11-15T07:47:11;6.43;;;2.55;;
12593;SDS011;6362;50.208;9.182;2022-11-15T07:49:37;4.85;;;2.28;;
12593;SDS011;6362;50.208;9.182;2022-11-15T07:52:03;4.43;;;2.28;;
12593;SDS011;6362;50.208;9.182;2022-11-15T07:54:28;5.93;;;2.50;;
12593;SDS011;6362;50.208;9.182;2022-11-15T07:56:54;6.07;;;2.60;;
12593;SDS011;6362;50.208;9.182;2022-11-15T07:59:19;4.85;;;2.20;;
12593;SDS011;6362;50.208;9.182;2022-11-15T08:01:44;7.60;;;2.40;;
12593;SDS011;6362;50.208;9.182;2022-11-15T08:04:10;6.95;;;2.20;;
12593;SDS011;6362;50.208;9.182;2022-11-15T08:06:36;5.50;;;2.72;;
12593;SDS011;6362;50.208;9.182;2022-11-15T08:09:02;7.30;;;2.53;;
12593;SDS011;6362;50.208;9.182;2022-11-15T08:11:27;5.97;;;2.67;;
12593;SDS011;6362;50.208;9.182;2022-11-15T08:13:53;5.40;;;2.60;;
12593;SDS011;6362;50.208;9.182;2022-11-15T08:16:19;7.47;;;2.60;;
12593;SDS011;6362;50.208;9.182;2022-11-15T08:18:45;5.80;;;2.55;;
12593;SDS011;6362;50.208;9.182;2022-11-15T08:21:11;5.55;;;2.53;;
12593;SDS011;6362;50.208;9.182;2022-11-15T08:23:42;8.55;;;2.50;;
12593;SDS011;6362;50.208;9.182;2022-11-15T08:26:08;4.97;;;2.33;;
12593;SDS011;6362;50.208;9.182;2022-11-15T08:28:33;4.07;;;2.00;;
12593;SDS011;6362;50.208;9.182;2022-11-15T08:30:59;7.20;;;3.25;;
12593;SDS011;6362;50.208;9.182;2022-11-15T08:33:24;5.20;;;2.40;;
12593;SDS011;6362;50.208;9.182;2022-11-15T08:35:50;7.25;;;2.70;;
12593;SDS011;6362;50.208;9.182;2022-11-15T08:38:15;5.55;;;2.22;;
12593;SDS011;6362;50.208;9.182;2022-11-15T08:40:41;6.03;;;2.40;;
12593;SDS011;6362;50.208;9.182;2022-11-15T08:43:06;5.70;;;2.50;;
12593;SDS011;6362;50.208;9.182;2022-11-15T08:45:33;5.20;;;2.20;;
12593;SDS011;6362;50.208;9.182;2022-11-15T08:48:00;5.45;;;2.45;;
12593;SDS011;6362;50.208;9.182;2022-11-15T08:50:27;5.60;;;2.30;;
12593;SDS011;6362;50.208;9.182;2022-11-15T08:52:52;5.05;;;2.08;;
12593;SDS011;6362;50.208;9.182;2022-11-15T08:55:18;6.60;;;2.33;;
12593;SDS011;6362;50.208;9.182;2022-11-15T08:57:44;8.20;;;2.80;;
12593;SDS011;6362;50.208;9.182;2022-11-15T09:00:10;6.40;;;2.25;;
12593;SDS011;6362;50.208;9.182;2022-11-15T09:02:37;4.50;;;2.10;;
12593;SDS011;6362;50.208;9.182;2022-11-15T09:05:04;4.22;;;2.05;;
12593;SDS011;6362;50.208;9.182;2022-11-15T09:07:30;5.53;;;2.15;;
12593;SDS011;6362;50.208;9.182;2022-11-15T09:09:56;6.32;;;2.78;;
12593;SDS011;6362;50.208;9.182;2022-11-15T09:12:22;9.27;;;3.20;;
12593;SDS011;6362;50.208;9.182;2022-11-15T09:14:49;5.18;;;2.20;;
12593;SDS011;6362;50.208;9.182;2022-11-15T09:17:15;5.95;;;2.60;;
12593;SDS011;6362;50.208;9.182;2022-11-15T09:19:40;5.88;;;2.45;;
12593;SDS011;6362;50.208;9.182;2022-11-15T09:22:06;5.03;;;2.33;;
12593;SDS011;6362;50.208;9.182;2022-11-15T09:24:32;5.28;;;1.85;;
12593;SDS011;6362;50.208;9.182;2022-11-15T09:26:58;6.43;;;2.35;;
12593;SDS011;6362;50.208;9.182;2022-11-15T09:29:24;5.70;;;2.13;;
12593;SDS011;6362;50.208;9.182;2022-11-15T09:31:51;5.57;;;2.47;;
12593;SDS011;6362;50.208;9.182;2022-11-15T09:34:17;6.68;;;2.20;;
12593;SDS011;6362;50.208;9.182;2022-11-15T09:36:42;5.40;;;2.20;;
12593;SDS011;6362;50.208;9.182;2022-11-15T09:39:08;4.07;;;1.83;;
12593;SDS011;6362;50.208;9.182;2022-11-15T09:41:40;5.38;;;2.20;;
12593;SDS011;6362;50.208;9.182;2022-11-15T09:44:27;5.57;;;2.25;;
12593;SDS011;6362;50.208;9.182;2022-11-15T09:47:15;5.65;;;1.95;;
12593;SDS011;6362;50.208;9.182;2022-11-15T09:49:45;7.15;;;1.98;;
12593;SDS011;6362;50.208;9.182;2022-11-15T09:52:12;6.57;;;1.98;;
12593;SDS011;6362;50.208;9.182;2022-11-15T09:54:38;4.45;;;1.70;;
12593;SDS011;6362;50.208;9.182;2022-11-15T09:57:17;4.38;;;1.83;;
12593;SDS011;6362;50.208;9.182;2022-11-15T10:05:20;5.57;;;1.75;;
12593;SDS011;6362;50.208;9.182;2022-11-15T10:10:37;8.93;;;1.95;;
12593;SDS011;6362;50.208;9.182;2022-11-15T10:13:07;5.72;;;1.92;;
12593;SDS011;6362;50.208;9.182;2022-11-15T10:15:47;5.82;;;1.92;;
12593;SDS011;6362;50.208;9.182;2022-11-15T10:21:00;3.67;;;1.80;;
12593;SDS011;6362;50.208;9.182;2022-11-15T10:23:38;5.03;;;1.90;;
12593;SDS011;6362;50.208;9.182;2022-11-15T10:26:04;3.30;;;1.70;;
12593;SDS011;6362;50.208;9.182;2022-11-15T10:28:36;6.33;;;2.20;;
12593;SDS011;6362;50.208;9.182;2022-11-15T10:31:01;3.70;;;1.50;;
12593;SDS011;6362;50.208;9.182;2022-11-15T10:33:31;5.32;;;1.92;;
12593;SDS011;6362;50.208;9.182;2022-11-15T10:38:49;6.43;;;2.00;;
12593;SDS011;6362;50.208;9.182;2022-11-15T10:41:19;5.85;;;1.85;;
12593;SDS011;6362;50.208;9.182;2022-11-15T10:46:47;6.30;;;1.45;;
12593;SDS011;6362;50.208;9.182;2022-11-15T10:49:29;6.03;;;1.80;;
12593;SDS011;6362;50.208;9.182;2022-11-15T10:54:25;4.90;;;2.10;;
12593;SDS011;6362;50.208;9.182;2022-11-15T10:56:55;5.20;;;1.80;;
12593;SDS011;6362;50.208;9.182;2022-11-15T10:59:24;4.50;;;1.80;;
12593;SDS011;6362;50.208;9.182;2022-11-15T11:01:53;5.90;;;1.70;;
12593;SDS011;6362;50.208;9.182;2022-11-15T11:04:19;6.32;;;2.13;;
12593;SDS011;6362;50.208;9.182;2022-11-15T11:06:57;4.95;;;1.70;;
12593;SDS011;6362;50.208;9.182;2022-11-15T11:12:05;3.80;;;1.30;;
12593;SDS011;6362;50.208;9.182;2022-11-15T11:14:36;4.57;;;1.60;;
12593;SDS011;6362;50.208;9.182;2022-11-15T11:19:48;3.35;;;1.50;;
12593;SDS011;6362;50.208;9.182;2022-11-15T11:30:50;2.78;;;1.40;;
12593;SDS011;6362;50.208;9.182;2022-11-15T11:49:36;5.38;;;1.52;;
12593;SDS011;6362;50.208;9.182;2022-11-15T11:52:38;5.45;;;1.90;;
12593;SDS011;6362;50.208;9.182;2022-11-15T12:00:50;4.65;;;1.70;;
12593;SDS011;6362;50.208;9.182;2022-11-15T12:03:22;5.43;;;1.50;;
12593;SDS011;6362;50.208;9.182;2022-11-15T12:06:00;4.93;;;1.75;;
12593;SDS011;6362;50.208;9.182;2022-11-15T12:08:31;5.32;;;1.70;;
12593;SDS011;6362;50.208;9.182;2022-11-15T12:11:20;6.05;;;1.80;;
12593;SDS011;6362;50.208;9.182;2022-11-15T12:13:55;5.15;;;1.98;;
12593;SDS011;6362;50.208;9.182;2022-11-15T12:16:26;4.93;;;1.42;;
12593;SDS011;6362;50.208;9.182;2022-11-15T12:18:53;4.93;;;1.48;;
12593;SDS011;6362;50.208;9.182;2022-11-15T12:22:10;5.78;;;1.70;;
12593;SDS011;6362;50.208;9.182;2022-11-15T12:29:44;3.70;;;1.45;;
12593;SDS011;6362;50.208;9.182;2022-11-15T12:32:27;5.28;;;1.60;;
12593;SDS011;6362;50.208;9.182;2022-11-15T12:34:55;3.75;;;1.17;;
12593;SDS011;6362;50.208;9.182;2022-11-15T12:40:05;4.00;;;1.25;;
12593;SDS011;6362;50.208;9.182;2022-11-15T12:45:25;3.83;;;1.38;;
12593;SDS011;6362;50.208;9.182;2022-11-15T13:12:11;1.90;;;1.00;;
12593;SDS011;6362;50.208;9.182;2022-11-15T13:14:53;4.00;;;1.10;;
12593;SDS011;6362;50.208;9.182;2022-11-15T13:19:55;2.92;;;1.10;;
12593;SDS011;6362;50.208;9.182;2022-11-15T13:22:38;2.53;;;1.00;;
12593;SDS011;6362;50.208;9.182;2022-11-15T13:28:24;2.90;;;1.00;;
12593;SDS011;6362;50.208;9.182;2022-11-15T13:31:40;2.38;;;0.90;;
12593;SDS011;6362;50.208;9.182;2022-11-15T13:33:46;3.28;;;1.08;;
12593;SDS011;6362;50.208;9.182;2022-11-15T13:36:15;4.00;;;1.20;;
12593;SDS011;6362;50.208;9.182;2022-11-15T13:39:01;2.65;;;1.00;;
12593;SDS011;6362;50.208;9.182;2022-11-15T13:41:30;3.25;;;1.25;;
12593;SDS011;6362;50.208;9.182;2022-11-15T13:43:58;2.72;;;1.00;;
12593;SDS011;6362;50.208;9.182;2022-11-15T13:46:25;2.55;;;1.10;;
12593;SDS011;6362;50.208;9.182;2022-11-15T13:48:56;2.67;;;1.27;;
12593;SDS011;6362;50.208;9.182;2022-11-15T13:54:22;3.20;;;1.30;;
12593;SDS011;6362;50.208;9.182;2022-11-15T13:57:05;3.08;;;1.05;;
12593;SDS011;6362;50.208;9.182;2022-11-15T13:59:44;2.53;;;1.10;;
12593;SDS011;6362;50.208;9.182;2022-11-15T14:02:13;3.15;;;1.02;;
12593;SDS011;6362;50.208;9.182;2022-11-15T14:04:46;4.00;;;1.30;;
12593;SDS011;6362;50.208;9.182;2022-11-15T14:07:19;2.30;;;1.30;;
12593;SDS011;6362;50.208;9.182;2022-11-15T14:09:46;4.50;;;1.42;;
12593;SDS011;6362;50.208;9.182;2022-11-15T14:12:26;3.45;;;1.20;;
12593;SDS011;6362;50.208;9.182;2022-11-15T14:14:54;2.15;;;1.00;;
12593;SDS011;6362;50.208;9.182;2022-11-15T14:17:21;2.00;;;0.93;;
12593;SDS011;6362;50.208;9.182;2022-11-15T14:19:56;2.38;;;1.08;;
12593;SDS011;6362;50.208;9.182;2022-11-15T14:22:23;3.67;;;1.20;;
12593;SDS011;6362;50.208;9.182;2022-11-15T14:28:07;2.00;;;1.00;;
12593;SDS011;6362;50.208;9.182;2022-11-15T14:30:41;5.00;;;1.60;;
12593;SDS011;6362;50.208;9.182;2022-11-15T14:33:44;4.63;;;1.30;;
12593;SDS011;6362;50.208;9.182;2022-11-15T14:36:17;4.38;;;1.40;;
12593;SDS011;6362;50.208;9.182;2022-11-15T14:38:45;3.92;;;1.40;;
12593;SDS011;6362;50.208;9.182;2022-11-15T14:41:34;5.43;;;1.70;;
12593;SDS011;6362;50.208;9.182;2022-11-15T14:44:02;5.45;;;2.05;;
12593;SDS011;6362;50.208;9.182;2022-11-15T14:46:28;4.47;;;1.67;;
12593;SDS011;6362;50.208;9.182;2022-11-15T14:48:54;4.93;;;1.60;;
12593;SDS011;6362;50.208;9.182;2022-11-15T14:51:19;3.70;;;1.67;;
12593;SDS011;6362;50.208;9.182;2022-11-15T14:53:45;3.58;;;1.70;;
12593;SDS011;6362;50.208;9.182;2022-11-15T14:56:12;4.50;;;1.40;;
12593;SDS011;6362;50.208;9.182;2022-11-15T14:58:38;3.83;;;1.80;;
12593;SDS011;6362;50.208;9.182;2022-11-15T15:01:20;4.30;;;1.73;;
12593;SDS011;6362;50.208;9.182;2022-11-15T15:03:49;3.47;;;1.75;;
12593;SDS011;6362;50.208;9.182;2022-11-15T15:06:17;3.85;;;1.80;;
12593;SDS011;6362;50.208;9.182;2022-11-15T15:08:43;4.78;;;1.85;;
12593;SDS011;6362;50.208;9.182;2022-11-15T15:11:13;5.90;;;1.77;;
12593;SDS011;6362;50.208;9.182;2022-11-15T15:13:41;5.38;;;1.77;;
12593;SDS011;6362;50.208;9.182;2022-11-15T15:16:06;3.83;;;1.60;;
12593;SDS011;6362;50.208;9.182;2022-11-15T15:18:32;3.35;;;1.60;;
12593;SDS011;6362;50.208;9.182;2022-11-15T15:20:58;4.03;;;2.10;;
12593;SDS011;6362;50.208;9.182;2022-11-15T15:23:27;4.70;;;2.00;;
12593;SDS011;6362;50.208;9.182;2022-11-15T15:25:55;4.45;;;1.70;;
12593;SDS011;6362;50.208;9.182;2022-11-15T15:28:21;5.38;;;1.88;;
12593;SDS011;6362;50.208;9.182;2022-11-15T15:30:46;4.63;;;2.00;;
12593;SDS011;6362;50.208;9.182;2022-11-15T15:33:12;6.35;;;2.15;;
12593;SDS011;6362;50.208;9.182;2022-11-15T15:35:37;4.25;;;2.13;;
12593;SDS011;6362;50.208;9.182;2022-11-15T15:38:03;5.07;;;1.90;;
12593;SDS011;6362;50.208;9.182;2022-11-15T15:40:29;5.30;;;2.30;;
12593;SDS011;6362;50.208;9.182;2022-11-15T15:42:56;4.97;;;1.77;;
12593;SDS011;6362;50.208;9.182;2022-11-15T15:45:22;3.35;;;1.83;;
12593;SDS011;6362;50.208;9.182;2022-11-15T15:47:47;5.35;;;1.70;;
12593;SDS011;6362;50.208;9.182;2022-11-15T15:50:17;5.43;;;2.13;;
12593;SDS011;6362;50.208;9.182;2022-11-15T15:52:47;5.63;;;1.83;;
12593;SDS011;6362;50.208;9.182;2022-11-15T15:55:13;3.25;;;1.50;;
12593;SDS011;6362;50.208;9.182;2022-11-15T15:57:38;3.15;;;1.50;;
12593;SDS011;6362;50.208;9.182;2022-11-15T16:00:04;2.72;;;1.23;;
12593;SDS011;6362;50.208;9.182;2022-11-15T16:02:30;3.40;;;1.40;;
12593;SDS011;6362;50.208;9.182;2022-11-15T16:04:56;4.00;;;1.40;;
12593;SDS011;6362;50.208;9.182;2022-11-15T16:07:22;3.80;;;1.50;;
12593;SDS011;6362;50.208;9.182;2022-11-15T16:09:50;3.08;;;1.33;;
12593;SDS011;6362;50.208;9.182;2022-11-15T16:12:25;4.80;;;1.48;;
12593;SDS011;6362;50.208;9.182;2022-11-15T16:14:51;3.65;;;1.52;;
12593;SDS011;6362;50.208;9.182;2022-11-15T16:17:17;3.58;;;1.40;;
12593;SDS011;6362;50.208;9.182;2022-11-15T16:19:45;4.88;;;2.28;;
12593;SDS011;6362;50.208;9.182;2022-11-15T16:22:10;4.35;;;1.83;;
12593;SDS011;6362;50.208;9.182;2022-11-15T16:24:35;5.10;;;2.38;;
12593;SDS011;6362;50.208;9.182;2022-11-15T16:27:01;3.92;;;1.52;;
12593;SDS011;6362;50.208;9.182;2022-11-15T16:29:27;4.63;;;2.50;;
12593;SDS011;6362;50.208;9.182;2022-11-15T16:31:53;3.47;;;1.40;;
12593;SDS011;6362;50.208;9.182;2022-11-15T16:34:18;5.13;;;1.20;;
12593;SDS011;6362;50.208;9.182;2022-11-15T16:36:44;7.28;;;4.57;;
12593;SDS011;6362;50.208;9.182;2022-11-15T16:39:13;5.63;;;3.08;;
12593;SDS011;6362;50.208;9.182;2022-11-15T16:41:40;5.65;;;3.60;;
12593;SDS011;6362;50.208;9.182;2022-11-15T16:44:08;4.70;;;1.70;;
12593;SDS011;6362;50.208;9.182;2022-11-15T16:46:33;4.45;;;1.40;;
12593;SDS011;6362;50.208;9.182;2022-11-15T16:48:59;4.00;;;1.70;;
12593;SDS011;6362;50.208;9.182;2022-11-15T16:51:25;3.10;;;1.50;;
12593;SDS011;6362;50.208;9.182;2022-11-15T16:53:50;3.53;;;1.45;;
12593;SDS011;6362;50.208;9.182;2022-11-15T16:58:51;4.10;;;1.65;;
12593;SDS011;6362;50.208;9.182;2022-11-15T17:01:32;3.20;;;1.80;;
12593;SDS011;6362;50.208;9.182;2022-11-15T17:03:59;11.00;;;2.00;;
12593;SDS011;6362;50.208;9.182;2022-11-15T17:06:39;2.40;;;1.30;;
12593;SDS011;6362;50.208;9.182;2022-11-15T17:09:10;4.13;;;1.98;;
12593;SDS011;6362;50.208;9.182;2022-11-15T17:14:05;7.75;;;3.92;;
12593;SDS011;6362;50.208;9.182;2022-11-15T17:16:31;5.93;;;2.08;;
12593;SDS011;6362;50.208;9.182;2022-11-15T17:18:58;4.97;;;2.30;;
12593;SDS011;6362;50.208;9.182;2022-11-15T17:21:23;7.13;;;3.42;;
12593;SDS011;6362;50.208;9.182;2022-11-15T17:23:51;6.78;;;2.63;;
12593;SDS011;6362;50.208;9.182;2022-11-15T17:26:17;7.72;;;5.65;;